Time;durP1;ratioP1;P1;durP2;ratioP2;P2;SDS_P1;SDS_P2;PMS_P1;PMS_P2;Temp;Humidity;BMP_temperature;BMP_pressure;BME280_temperature;BME280_humidity;BME280_pressure;Samples;Min_cycle;Max_cycle;Signal;HPM_P1;HPM_P2
2022/03/24 00:01:45;;;;;;;38.80;19.17;;;;;;;;;;5026343;28;20759;-66
2022/03/24 00:04:10;;;;;;;34.97;19.60;;;;;;;;;;5040189;28;20201;-65
2022/03/24 00:06:35;;;;;;;35.13;18.43;;;;;;;;;;5035041;28;20178;-65
2022/03/24 00:09:01;;;;;;;34.47;17.90;;;;;;;;;;5032349;28;20177;-66
2022/03/24 00:11:26;;;;;;;34.70;19.37;;;;;;;;;;5027683;28;20194;-66
2022/03/24 00:13:52;;;;;;;37.20;18.97;;;;;;;;;;5026885;28;20315;-66
2022/03/24 00:16:19;;;;;;;33.07;18.27;;;;;;;;;;5020801;28;20566;-65
2022/03/24 00:18:45;;;;;;;33.40;18.70;;;;;;;;;;5027315;28;20193;-66
2022/03/24 00:21:10;;;;;;;36.77;19.00;;;;;;;;;;5024196;28;20195;-66
2022/03/24 00:23:36;;;;;;;37.77;19.03;;;;;;;;;;5018726;28;20190;-66
2022/03/24 00:26:02;;;;;;;38.33;19.03;;;;;;;;;;5026495;28;20182;-66
2022/03/24 00:28:27;;;;;;;34.90;18.03;;;;;;;;;;5033514;28;20197;-66
2022/03/24 00:30:53;;;;;;;36.33;18.33;;;;;;;;;;5027714;28;20205;-66
2022/03/24 00:33:18;;;;;;;34.50;19.07;;;;;;;;;;5026513;28;20197;-66
2022/03/24 00:35:44;;;;;;;36.93;18.10;;;;;;;;;;5032242;28;20208;-66
2022/03/24 00:38:09;;;;;;;36.20;18.97;;;;;;;;;;5026883;28;20201;-67
2022/03/24 00:40:35;;;;;;;36.87;19.80;;;;;;;;;;5030076;28;20186;-69
2022/03/24 00:43:01;;;;;;;43.30;19.37;;;;;;;;;;5030217;28;20482;-66
2022/03/24 00:45:27;;;;;;;40.17;19.77;;;;;;;;;;5029942;28;20210;-65
2022/03/24 00:47:53;;;;;;;34.47;18.10;;;;;;;;;;5021245;28;20237;-66
2022/03/24 00:50:18;;;;;;;32.87;18.97;;;;;;;;;;5018406;28;20200;-66
2022/03/24 00:52:45;;;;;;;40.00;19.83;;;;;;;;;;5027482;28;20264;-67
2022/03/24 00:55:13;;;;;;;36.63;19.27;;;;;;;;;;5027052;28;20186;-66
2022/03/24 00:57:40;;;;;;;36.47;18.47;;;;;;;;;;5027558;28;20185;-66
2022/03/24 01:00:08;;;;;;;38.93;18.90;;;;;;;;;;5030860;28;20187;-66
2022/03/24 01:02:37;;;;;;;37.10;19.97;;;;;;;;;;5018933;28;20341;-66
2022/03/24 01:05:07;;;;;;;34.27;18.67;;;;;;;;;;5010374;28;20199;-66
2022/03/24 01:07:35;;;;;;;38.23;20.07;;;;;;;;;;5021631;28;20189;-66
2022/03/24 01:10:02;;;;;;;38.73;19.20;;;;;;;;;;5027727;28;20349;-67
2022/03/24 01:12:28;;;;;;;37.00;19.23;;;;;;;;;;5016264;28;20230;-66
2022/03/24 01:14:55;;;;;;;40.50;20.20;;;;;;;;;;5029839;28;20190;-66
2022/03/24 01:17:23;;;;;;;43.70;20.53;;;;;;;;;;5016605;28;20217;-66
2022/03/24 01:19:49;;;;;;;43.33;20.17;;;;;;;;;;5029132;28;20189;-67
2022/03/24 01:22:14;;;;;;;40.97;21.27;;;;;;;;;;5017010;28;20196;-66
2022/03/24 01:24:39;;;;;;;39.67;20.60;;;;;;;;;;5026254;28;20251;-67
2022/03/24 01:27:05;;;;;;;37.00;19.37;;;;;;;;;;5030050;28;20189;-67
2022/03/24 01:29:32;;;;;;;35.20;19.67;;;;;;;;;;5028989;28;20261;-66
2022/03/24 01:31:57;;;;;;;36.60;20.23;;;;;;;;;;5023202;28;20199;-65
2022/03/24 01:34:24;;;;;;;36.10;19.67;;;;;;;;;;5014633;28;20227;-66
2022/03/24 01:36:49;;;;;;;36.77;19.37;;;;;;;;;;5019434;28;20183;-66
2022/03/24 01:39:15;;;;;;;40.43;19.37;;;;;;;;;;5025709;28;20216;-66
2022/03/24 01:41:40;;;;;;;41.73;19.40;;;;;;;;;;5028349;28;20205;-66
2022/03/24 01:44:17;;;;;;;37.87;18.77;;;;;;;;;;5021041;28;20338;-66
2022/03/24 01:47:03;;;;;;;33.33;18.33;;;;;;;;;;5028702;28;20181;-66
2022/03/24 01:49:32;;;;;;;37.40;19.70;;;;;;;;;;5012436;28;20629;-66
2022/03/24 01:51:58;;;;;;;36.93;18.70;;;;;;;;;;5016960;28;20181;-66
2022/03/24 01:54:29;;;;;;;38.30;19.73;;;;;;;;;;5023783;28;20630;-66
2022/03/24 01:56:55;;;;;;;37.33;17.60;;;;;;;;;;5024449;28;20731;-66
2022/03/24 01:59:20;;;;;;;38.00;18.80;;;;;;;;;;5013122;28;20225;-66
2022/03/24 02:01:46;;;;;;;37.23;19.57;;;;;;;;;;5027133;28;20173;-66
2022/03/24 02:04:14;;;;;;;34.70;19.37;;;;;;;;;;5018810;28;20751;-66
2022/03/24 02:06:40;;;;;;;37.20;19.20;;;;;;;;;;5026991;28;20206;-66
2022/03/24 02:09:06;;;;;;;38.07;18.93;;;;;;;;;;5012395;28;20191;-66
2022/03/24 02:11:34;;;;;;;37.63;19.00;;;;;;;;;;5027296;28;20194;-66
2022/03/24 02:13:59;;;;;;;35.83;18.90;;;;;;;;;;5015640;28;20236;-66
2022/03/24 02:16:29;;;;;;;35.47;18.73;;;;;;;;;;5023791;28;20202;-66
2022/03/24 02:18:59;;;;;;;36.70;19.80;;;;;;;;;;5024065;28;20208;-66
2022/03/24 02:21:28;;;;;;;39.13;18.77;;;;;;;;;;5012385;28;20296;-66
2022/03/24 02:23:53;;;;;;;39.17;19.27;;;;;;;;;;5013871;28;20181;-66
2022/03/24 02:26:19;;;;;;;32.33;18.33;;;;;;;;;;5025195;28;20669;-66
2022/03/24 02:28:45;;;;;;;36.50;19.23;;;;;;;;;;5021940;28;20261;-67
2022/03/24 02:31:14;;;;;;;37.73;19.73;;;;;;;;;;5020129;28;20679;-66
2022/03/24 02:33:40;;;;;;;36.13;18.67;;;;;;;;;;5018931;28;20221;-66
2022/03/24 02:36:06;;;;;;;39.27;19.27;;;;;;;;;;5012264;28;20609;-68
2022/03/24 02:38:32;;;;;;;36.27;19.03;;;;;;;;;;5038445;28;20640;-66
2022/03/24 02:40:57;;;;;;;35.47;19.47;;;;;;;;;;5037447;28;20182;-66
2022/03/24 02:43:24;;;;;;;33.33;18.10;;;;;;;;;;5025298;28;20585;-66
2022/03/24 02:45:50;;;;;;;39.40;18.13;;;;;;;;;;5027243;28;20194;-67
2022/03/24 02:48:16;;;;;;;38.63;19.20;;;;;;;;;;5022186;28;20225;-67
2022/03/24 02:50:41;;;;;;;39.63;18.27;;;;;;;;;;5034502;28;20247;-66
2022/03/24 02:53:07;;;;;;;36.27;18.00;;;;;;;;;;5026003;28;20676;-66
2022/03/24 02:55:32;;;;;;;31.97;16.63;;;;;;;;;;5022930;28;20612;-66
2022/03/24 02:57:57;;;;;;;37.17;18.10;;;;;;;;;;5028052;28;20281;-67
2022/03/24 03:00:25;;;;;;;33.23;17.93;;;;;;;;;;5020647;28;20266;-67
2022/03/24 03:02:52;;;;;;;42.87;17.83;;;;;;;;;;5014829;28;20252;-66
2022/03/24 03:05:18;;;;;;;42.17;19.27;;;;;;;;;;5017454;28;20787;-67
2022/03/24 03:07:44;;;;;;;36.40;17.80;;;;;;;;;;5021739;28;20179;-67
2022/03/24 03:10:10;;;;;;;40.30;19.03;;;;;;;;;;5022224;28;20236;-67
2022/03/24 03:12:36;;;;;;;35.23;17.90;;;;;;;;;;5021394;28;20233;-67
2022/03/24 03:15:03;;;;;;;37.43;18.77;;;;;;;;;;5024974;28;20709;-66
2022/03/24 03:17:28;;;;;;;39.83;18.20;;;;;;;;;;5016399;28;20236;-67
2022/03/24 03:19:54;;;;;;;41.07;17.80;;;;;;;;;;5006322;28;20186;-66
2022/03/24 03:22:21;;;;;;;40.03;17.30;;;;;;;;;;5020175;28;20185;-67
2022/03/24 03:24:46;;;;;;;36.27;17.53;;;;;;;;;;5020258;28;20545;-67
2022/03/24 03:27:12;;;;;;;32.00;16.87;;;;;;;;;;5031935;28;20189;-66
2022/03/24 03:29:37;;;;;;;38.47;18.43;;;;;;;;;;5035908;28;20241;-66
2022/03/24 03:32:03;;;;;;;37.13;17.83;;;;;;;;;;5034388;28;20450;-67
2022/03/24 03:34:29;;;;;;;36.17;17.63;;;;;;;;;;5023657;28;20179;-66
2022/03/24 03:36:56;;;;;;;35.10;17.20;;;;;;;;;;5030044;28;20241;-66
2022/03/24 03:39:23;;;;;;;39.33;18.23;;;;;;;;;;5021400;28;20193;-66
2022/03/24 03:41:49;;;;;;;35.10;16.83;;;;;;;;;;5030293;28;20193;-66
2022/03/24 03:44:14;;;;;;;40.03;18.03;;;;;;;;;;5028832;28;20560;-67
2022/03/24 03:46:40;;;;;;;40.27;18.13;;;;;;;;;;5028010;28;20186;-67
2022/03/24 03:49:08;;;;;;;38.73;18.07;;;;;;;;;;5027368;28;20268;-66
2022/03/24 03:51:35;;;;;;;43.23;17.27;;;;;;;;;;5040425;28;20182;-66
2022/03/24 03:54:00;;;;;;;34.40;16.70;;;;;;;;;;5028666;28;20233;-67
2022/03/24 03:56:26;;;;;;;32.70;16.43;;;;;;;;;;5026705;28;20175;-67
2022/03/24 03:58:51;;;;;;;34.77;17.27;;;;;;;;;;5021650;28;20670;-67
2022/03/24 04:01:16;;;;;;;38.43;17.47;;;;;;;;;;5022898;28;20277;-65
2022/03/24 04:03:42;;;;;;;38.17;17.47;;;;;;;;;;5030758;28;20182;-66
2022/03/24 04:06:10;;;;;;;35.63;17.10;;;;;;;;;;5020984;28;20303;-66
2022/03/24 04:08:37;;;;;;;32.73;15.63;;;;;;;;;;5024099;28;20186;-66
2022/03/24 04:11:04;;;;;;;37.90;17.37;;;;;;;;;;5023621;28;20206;-66
2022/03/24 04:13:29;;;;;;;36.00;18.00;;;;;;;;;;5019102;28;20222;-67
2022/03/24 04:15:55;;;;;;;34.93;17.43;;;;;;;;;;5027819;28;20248;-66
2022/03/24 04:18:22;;;;;;;38.93;16.83;;;;;;;;;;5023415;28;20185;-66
2022/03/24 04:20:48;;;;;;;29.00;15.30;;;;;;;;;;5023257;28;20532;-66
2022/03/24 04:23:13;;;;;;;38.63;17.60;;;;;;;;;;5024811;28;20488;-66
2022/03/24 04:25:39;;;;;;;42.13;17.20;;;;;;;;;;5025823;28;20202;-66
2022/03/24 04:28:05;;;;;;;38.27;17.10;;;;;;;;;;5023079;28;20292;-67
2022/03/24 04:30:32;;;;;;;36.87;17.83;;;;;;;;;;5023684;28;20348;-67
2022/03/24 04:32:58;;;;;;;35.17;15.73;;;;;;;;;;5016740;28;20197;-66
2022/03/24 04:35:23;;;;;;;38.33;17.37;;;;;;;;;;5020122;28;20183;-66
2022/03/24 04:37:50;;;;;;;34.43;17.10;;;;;;;;;;5011827;28;20488;-66
2022/03/24 04:40:16;;;;;;;31.57;17.50;;;;;;;;;;5031094;28;20198;-66
2022/03/24 04:42:44;;;;;;;33.20;16.47;;;;;;;;;;5020402;28;20181;-66
2022/03/24 04:45:10;;;;;;;34.27;17.00;;;;;;;;;;5015337;28;20210;-66
2022/03/24 04:47:36;;;;;;;32.30;16.33;;;;;;;;;;5022012;28;20251;-66
2022/03/24 04:50:02;;;;;;;34.23;17.50;;;;;;;;;;5014309;28;20611;-66
2022/03/24 04:52:27;;;;;;;37.57;16.73;;;;;;;;;;5029093;28;20337;-67
2022/03/24 04:54:53;;;;;;;38.27;17.37;;;;;;;;;;5017334;28;20190;-66
2022/03/24 04:57:18;;;;;;;40.63;17.70;;;;;;;;;;5024571;28;20202;-66
2022/03/24 04:59:43;;;;;;;35.60;17.77;;;;;;;;;;5025783;28;20177;-67
2022/03/24 05:02:12;;;;;;;35.27;17.50;;;;;;;;;;5020597;28;20174;-66
2022/03/24 05:04:37;;;;;;;38.90;18.93;;;;;;;;;;5023402;28;20221;-67
2022/03/24 05:07:04;;;;;;;40.30;18.30;;;;;;;;;;5026133;28;20170;-67
2022/03/24 05:09:29;;;;;;;42.53;18.17;;;;;;;;;;5027412;28;20605;-67
2022/03/24 05:11:54;;;;;;;36.03;18.70;;;;;;;;;;5024530;28;20194;-66
2022/03/24 05:14:20;;;;;;;43.10;18.07;;;;;;;;;;5025393;28;20612;-66
2022/03/24 05:16:46;;;;;;;37.90;18.10;;;;;;;;;;5028006;28;20649;-66
2022/03/24 05:19:12;;;;;;;36.77;18.07;;;;;;;;;;5015876;28;20178;-66
2022/03/24 05:21:37;;;;;;;37.73;18.00;;;;;;;;;;5023125;28;20547;-66
2022/03/24 05:24:03;;;;;;;39.10;18.73;;;;;;;;;;5021537;28;20186;-66
2022/03/24 05:26:28;;;;;;;38.97;19.40;;;;;;;;;;5023007;28;20194;-66
2022/03/24 05:28:54;;;;;;;40.97;19.23;;;;;;;;;;5033092;28;20208;-66
2022/03/24 05:31:20;;;;;;;40.13;18.83;;;;;;;;;;5033691;28;20201;-66
2022/03/24 05:33:46;;;;;;;40.07;19.43;;;;;;;;;;5036005;28;20209;-66
2022/03/24 05:36:12;;;;;;;38.37;19.00;;;;;;;;;;5036554;28;20232;-66
2022/03/24 05:38:38;;;;;;;41.40;18.73;;;;;;;;;;5040829;28;20189;-66
2022/03/24 05:41:04;;;;;;;41.07;19.50;;;;;;;;;;5037320;28;20520;-67
2022/03/24 05:43:29;;;;;;;40.33;19.43;;;;;;;;;;5040593;28;20558;-66
2022/03/24 05:45:55;;;;;;;44.07;19.30;;;;;;;;;;5036776;28;20246;-66
2022/03/24 05:48:20;;;;;;;41.67;19.70;;;;;;;;;;5042966;28;20196;-66
2022/03/24 05:50:46;;;;;;;41.53;19.93;;;;;;;;;;5040414;28;20226;-66
2022/03/24 05:53:12;;;;;;;40.30;19.33;;;;;;;;;;5041429;28;20258;-66
2022/03/24 05:55:38;;;;;;;40.87;19.37;;;;;;;;;;5041272;28;20194;-66
2022/03/24 05:58:04;;;;;;;42.83;21.10;;;;;;;;;;5041033;28;20633;-66
2022/03/24 06:00:31;;;;;;;43.80;20.70;;;;;;;;;;5021119;28;20559;-66
2022/03/24 06:02:57;;;;;;;54.27;22.20;;;;;;;;;;5019697;28;20336;-66
2022/03/24 06:05:23;;;;;;;53.77;22.43;;;;;;;;;;5021518;28;20712;-66
2022/03/24 06:07:48;;;;;;;54.03;22.90;;;;;;;;;;5021306;28;20626;-66
2022/03/24 06:10:14;;;;;;;52.23;24.67;;;;;;;;;;5019342;28;20209;-66
2022/03/24 06:12:40;;;;;;;60.20;25.23;;;;;;;;;;5016519;28;20248;-67
2022/03/24 06:15:06;;;;;;;57.30;26.23;;;;;;;;;;5020800;28;20217;-67
2022/03/24 06:17:32;;;;;;;60.20;27.40;;;;;;;;;;5020853;28;20268;-66
2022/03/24 06:19:58;;;;;;;62.40;26.23;;;;;;;;;;5023446;28;20235;-66
2022/03/24 06:22:23;;;;;;;52.57;24.63;;;;;;;;;;5027814;28;20194;-66
2022/03/24 06:24:48;;;;;;;51.57;25.03;;;;;;;;;;5020972;28;20252;-66
2022/03/24 06:27:16;;;;;;;47.67;23.57;;;;;;;;;;5025084;28;20213;-66
2022/03/24 06:29:41;;;;;;;47.20;23.43;;;;;;;;;;5030737;28;20181;-66
2022/03/24 06:32:07;;;;;;;50.77;23.67;;;;;;;;;;5030858;28;20628;-66
2022/03/24 06:34:32;;;;;;;51.53;23.90;;;;;;;;;;5025538;28;20188;-66
2022/03/24 06:36:57;;;;;;;56.77;25.07;;;;;;;;;;5026408;28;20265;-66
2022/03/24 06:39:23;;;;;;;51.17;24.70;;;;;;;;;;5023383;28;20220;-66
2022/03/24 06:41:49;;;;;;;53.97;23.97;;;;;;;;;;5026623;28;20186;-66
2022/03/24 06:44:15;;;;;;;53.10;25.53;;;;;;;;;;5018338;28;20233;-66
2022/03/24 06:46:40;;;;;;;54.83;24.63;;;;;;;;;;5035933;28;20173;-66
2022/03/24 06:49:06;;;;;;;55.50;27.30;;;;;;;;;;5037920;28;20532;-66
2022/03/24 06:51:33;;;;;;;53.63;24.90;;;;;;;;;;5040707;28;20174;-66
2022/03/24 06:53:58;;;;;;;50.50;24.60;;;;;;;;;;5035015;28;20592;-66
2022/03/24 06:56:24;;;;;;;43.43;22.23;;;;;;;;;;5035471;28;20221;-66
2022/03/24 06:58:50;;;;;;;50.27;25.07;;;;;;;;;;5046789;28;20189;-66
2022/03/24 07:01:16;;;;;;;48.77;24.27;;;;;;;;;;5042550;28;20593;-66
2022/03/24 07:03:41;;;;;;;54.60;26.93;;;;;;;;;;5042134;28;20202;-65
2022/03/24 07:06:07;;;;;;;56.50;27.80;;;;;;;;;;5029429;28;20253;-67
2022/03/24 07:08:32;;;;;;;56.50;25.87;;;;;;;;;;5039285;28;20178;-66
2022/03/24 07:10:58;;;;;;;56.23;26.40;;;;;;;;;;5042749;28;20516;-66
2022/03/24 07:13:23;;;;;;;61.57;26.77;;;;;;;;;;5046291;28;20308;-66
2022/03/24 07:15:49;;;;;;;57.83;28.30;;;;;;;;;;5040369;28;20182;-66
2022/03/24 07:18:15;;;;;;;57.53;28.43;;;;;;;;;;5043869;28;20181;-66
2022/03/24 07:20:41;;;;;;;52.03;27.17;;;;;;;;;;5042551;28;20299;-65
2022/03/24 07:23:08;;;;;;;58.47;27.70;;;;;;;;;;5044233;28;20266;-65
2022/03/24 07:25:34;;;;;;;58.33;29.13;;;;;;;;;;5041590;28;20570;-66
2022/03/24 07:28:00;;;;;;;53.97;27.70;;;;;;;;;;5040921;28;20191;-65
2022/03/24 07:30:26;;;;;;;53.57;26.27;;;;;;;;;;5045234;28;20206;-66
2022/03/24 07:32:55;;;;;;;45.17;24.97;;;;;;;;;;5046139;28;20184;-66
2022/03/24 07:35:21;;;;;;;54.03;26.67;;;;;;;;;;5038214;28;20367;-65
2022/03/24 07:37:47;;;;;;;49.80;26.40;;;;;;;;;;5042303;28;20261;-66
2022/03/24 07:40:14;;;;;;;51.83;24.97;;;;;;;;;;5020992;28;20240;-66
2022/03/24 07:42:39;;;;;;;51.03;25.77;;;;;;;;;;5028555;28;20211;-66
2022/03/24 07:45:06;;;;;;;48.87;25.23;;;;;;;;;;5042913;28;20497;-67
2022/03/24 07:47:31;;;;;;;51.80;24.47;;;;;;;;;;5043191;28;20748;-66
2022/03/24 07:49:57;;;;;;;50.53;23.87;;;;;;;;;;5042907;28;20188;-66
2022/03/24 07:52:26;;;;;;;44.37;23.67;;;;;;;;;;5047689;28;20263;-66
2022/03/24 07:54:58;;;;;;;46.23;22.87;;;;;;;;;;5042428;28;20656;-67
2022/03/24 07:57:30;;;;;;;47.70;22.83;;;;;;;;;;5044185;28;20213;-66
2022/03/24 07:59:56;;;;;;;48.20;23.47;;;;;;;;;;5038886;28;20700;-66
2022/03/24 08:02:21;;;;;;;46.60;22.93;;;;;;;;;;5040578;28;20198;-65
2022/03/24 08:04:47;;;;;;;48.87;23.33;;;;;;;;;;5042725;28;20283;-65
2022/03/24 08:07:12;;;;;;;44.17;21.97;;;;;;;;;;5043569;28;20187;-65
2022/03/24 08:09:37;;;;;;;59.27;22.80;;;;;;;;;;5039178;28;20183;-67
2022/03/24 08:12:03;;;;;;;47.23;22.57;;;;;;;;;;5044321;28;20202;-67
2022/03/24 08:14:28;;;;;;;40.30;22.23;;;;;;;;;;5039383;28;20313;-66
2022/03/24 08:16:54;;;;;;;48.78;22.83;;;;;;;;;;5047410;28;20177;-66
2022/03/24 08:19:19;;;;;;;42.53;22.77;;;;;;;;;;5037215;28;20194;-66
2022/03/24 08:21:44;;;;;;;43.67;21.10;;;;;;;;;;5045093;28;20494;-66
2022/03/24 08:24:10;;;;;;;38.38;21.77;;;;;;;;;;5046410;28;20185;-66
2022/03/24 08:26:37;;;;;;;40.97;22.05;;;;;;;;;;5043010;28;20190;-65
2022/03/24 08:29:04;;;;;;;36.60;22.35;;;;;;;;;;5042066;28;20639;-66
2022/03/24 08:31:29;;;;;;;42.25;22.40;;;;;;;;;;5042173;28;20217;-66
2022/03/24 08:33:55;;;;;;;43.67;21.42;;;;;;;;;;5045287;28;20234;-66
2022/03/24 08:36:21;;;;;;;38.80;22.08;;;;;;;;;;5044738;28;20568;-66
2022/03/24 08:38:46;;;;;;;42.28;22.67;;;;;;;;;;5047557;28;20185;-67
2022/03/24 08:41:11;;;;;;;39.95;22.23;;;;;;;;;;5040807;28;20189;-66
2022/03/24 08:43:37;;;;;;;42.83;22.08;;;;;;;;;;5045227;28;20680;-66
2022/03/24 08:46:03;;;;;;;40.97;22.88;;;;;;;;;;5043018;28;20233;-67
2022/03/24 08:48:29;;;;;;;41.90;21.63;;;;;;;;;;5043252;28;20189;-67
2022/03/24 08:50:54;;;;;;;41.15;22.42;;;;;;;;;;5043392;28;20188;-67
2022/03/24 08:53:19;;;;;;;39.75;22.30;;;;;;;;;;5042637;28;20228;-67
2022/03/24 08:55:45;;;;;;;41.25;22.50;;;;;;;;;;5042645;28;20227;-67
2022/03/24 08:58:11;;;;;;;42.40;23.42;;;;;;;;;;5045006;28;20182;-66
2022/03/24 09:00:36;;;;;;;45.83;23.70;;;;;;;;;;5041369;28;20221;-65
2022/03/24 09:03:02;;;;;;;44.70;23.73;;;;;;;;;;5041646;28;20532;-66
2022/03/24 09:05:27;;;;;;;40.53;22.00;;;;;;;;;;5035482;28;20209;-66
2022/03/24 09:07:52;;;;;;;39.80;22.10;;;;;;;;;;5043685;28;20304;-66
2022/03/24 09:10:18;;;;;;;42.20;21.75;;;;;;;;;;5030957;28;20504;-66
2022/03/24 09:12:45;;;;;;;38.95;20.50;;;;;;;;;;5038694;28;20230;-67
2022/03/24 09:15:12;;;;;;;39.58;21.55;;;;;;;;;;5043166;28;20205;-67
2022/03/24 09:17:39;;;;;;;37.50;20.20;;;;;;;;;;5038297;28;20497;-67
2022/03/24 09:20:09;;;;;;;37.95;19.67;;;;;;;;;;5041137;28;20256;-67
2022/03/24 09:22:35;;;;;;;37.70;20.98;;;;;;;;;;5038248;28;20197;-67
2022/03/24 09:25:01;;;;;;;37.28;21.15;;;;;;;;;;5034463;28;20218;-66
2022/03/24 09:27:26;;;;;;;41.25;21.52;;;;;;;;;;5020404;28;20261;-66
2022/03/24 09:29:52;;;;;;;38.22;20.85;;;;;;;;;;5026688;28;20174;-66
2022/03/24 09:32:18;;;;;;;35.15;19.27;;;;;;;;;;5037747;28;20206;-66
2022/03/24 09:34:43;;;;;;;40.50;20.80;;;;;;;;;;5033083;28;20169;-66
2022/03/24 09:37:09;;;;;;;37.92;21.52;;;;;;;;;;5044365;28;20713;-66
2022/03/24 09:39:35;;;;;;;37.90;20.55;;;;;;;;;;5027519;28;20174;-67
2022/03/24 09:42:01;;;;;;;37.70;21.80;;;;;;;;;;5024494;28;20676;-66
2022/03/24 09:44:26;;;;;;;41.42;21.10;;;;;;;;;;5029473;28;20193;-66
2022/03/24 09:46:52;;;;;;;40.58;21.42;;;;;;;;;;5035671;28;20193;-66
2022/03/24 09:49:17;;;;;;;35.90;20.73;;;;;;;;;;5034504;28;20455;-66
2022/03/24 09:51:43;;;;;;;41.65;21.42;;;;;;;;;;5021257;28;20542;-67
2022/03/24 09:54:11;;;;;;;35.97;21.38;;;;;;;;;;5040203;28;20189;-67
2022/03/24 09:56:37;;;;;;;35.33;20.10;;;;;;;;;;5030950;28;20452;-67
2022/03/24 09:59:03;;;;;;;37.28;20.88;;;;;;;;;;5038477;28;20177;-67
2022/03/24 10:01:29;;;;;;;40.55;21.95;;;;;;;;;;5035590;28;20171;-67
2022/03/24 10:04:05;;;;;;;36.95;21.02;;;;;;;;;;5031159;28;20188;-66
2022/03/24 10:06:32;;;;;;;39.47;21.77;;;;;;;;;;5025378;28;20193;-66
2022/03/24 10:08:57;;;;;;;34.83;20.35;;;;;;;;;;5027441;28;20615;-66
2022/03/24 10:11:27;;;;;;;37.15;21.17;;;;;;;;;;5039322;28;20355;-67
2022/03/24 10:13:54;;;;;;;35.50;20.95;;;;;;;;;;5033253;28;20229;-67
2022/03/24 10:16:40;;;;;;;40.08;21.38;;;;;;;;;;5023143;28;20189;-66
2022/03/24 10:19:16;;;;;;;42.10;22.33;;;;;;;;;;5025090;28;20194;-66
2022/03/24 10:21:48;;;;;;;40.55;21.40;;;;;;;;;;5039503;28;20185;-66
2022/03/24 10:24:21;;;;;;;42.38;24.13;;;;;;;;;;5044431;28;20284;-66
2022/03/24 10:27:03;;;;;;;37.38;21.67;;;;;;;;;;5033540;28;20840;-66
2022/03/24 10:29:30;;;;;;;38.97;21.10;;;;;;;;;;5026858;28;20208;-66
2022/03/24 10:31:58;;;;;;;35.20;20.85;;;;;;;;;;5033984;28;20201;-66
2022/03/24 10:34:31;;;;;;;37.00;21.15;;;;;;;;;;5051397;28;20178;-66
2022/03/24 10:37:01;;;;;;;34.28;20.10;;;;;;;;;;5043530;28;20524;-66
2022/03/24 10:39:26;;;;;;;37.42;19.88;;;;;;;;;;5039988;28;20587;-66
2022/03/24 10:41:52;;;;;;;31.80;20.33;;;;;;;;;;5034572;28;20187;-66
2022/03/24 10:44:17;;;;;;;40.40;20.55;;;;;;;;;;5039035;28;20873;-65
2022/03/24 10:46:43;;;;;;;38.92;21.55;;;;;;;;;;5029514;28;20235;-66
2022/03/24 10:49:23;;;;;;;35.78;20.67;;;;;;;;;;5037769;28;20191;-66
2022/03/24 10:51:50;;;;;;;33.75;19.40;;;;;;;;;;5023415;28;20676;-66
2022/03/24 10:54:15;;;;;;;31.80;19.73;;;;;;;;;;5037068;28;20223;-67
2022/03/24 10:57:00;;;;;;;32.42;19.70;;;;;;;;;;5036708;28;20544;-66
2022/03/24 10:59:29;;;;;;;32.92;19.05;;;;;;;;;;5041200;28;20190;-66
2022/03/24 11:01:55;;;;;;;37.03;19.60;;;;;;;;;;5028735;28;20186;-66
2022/03/24 11:04:20;;;;;;;34.63;20.50;;;;;;;;;;5030681;28;20304;-66
2022/03/24 11:06:50;;;;;;;30.77;18.58;;;;;;;;;;5020208;28;20186;-67
2022/03/24 11:09:23;;;;;;;35.90;19.40;;;;;;;;;;5031117;28;20235;-66
2022/03/24 11:12:14;;;;;;;33.58;19.33;;;;;;;;;;5022784;28;20249;-65
2022/03/24 11:14:41;;;;;;;29.77;18.40;;;;;;;;;;5021754;28;20229;-66
2022/03/24 11:17:07;;;;;;;29.67;17.38;;;;;;;;;;5018352;28;20232;-66
2022/03/24 11:19:32;;;;;;;30.67;18.38;;;;;;;;;;5052994;28;20539;-66
2022/03/24 11:21:58;;;;;;;28.70;17.10;;;;;;;;;;5036923;28;20513;-65
2022/03/24 11:24:25;;;;;;;29.38;18.70;;;;;;;;;;5031376;28;20209;-66
2022/03/24 11:26:51;;;;;;;31.90;17.35;;;;;;;;;;5033839;28;20565;-66
2022/03/24 11:29:17;;;;;;;29.90;18.23;;;;;;;;;;5045482;28;20621;-66
2022/03/24 11:31:44;;;;;;;30.45;17.65;;;;;;;;;;5025528;28;20275;-66
2022/03/24 11:34:10;;;;;;;27.65;17.25;;;;;;;;;;5030087;28;20210;-65
2022/03/24 11:36:35;;;;;;;24.95;16.85;;;;;;;;;;5034440;28;20244;-66
2022/03/24 11:39:04;;;;;;;33.95;16.83;;;;;;;;;;5040043;28;20178;-66
2022/03/24 11:41:40;;;;;;;28.70;16.80;;;;;;;;;;5032060;28;20186;-65
2022/03/24 11:44:35;;;;;;;31.92;18.48;;;;;;;;;;5034527;28;20193;-66
2022/03/24 11:47:11;;;;;;;27.10;16.08;;;;;;;;;;5032328;28;20250;-66
2022/03/24 11:49:37;;;;;;;29.30;17.35;;;;;;;;;;5028131;28;20216;-66
2022/03/24 11:52:02;;;;;;;32.15;16.75;;;;;;;;;;5037615;28;20657;-66
2022/03/24 11:54:33;;;;;;;29.85;18.77;;;;;;;;;;5042839;28;20268;-66
2022/03/24 11:57:22;;;;;;;28.95;17.58;;;;;;;;;;5031483;28;20276;-66
2022/03/24 11:59:50;;;;;;;31.90;16.92;;;;;;;;;;5035357;28;20189;-67
2022/03/24 12:02:17;;;;;;;32.05;17.02;;;;;;;;;;5032780;28;20765;-66
2022/03/24 12:04:47;;;;;;;26.63;14.80;;;;;;;;;;5044856;28;20565;-66
2022/03/24 12:07:18;;;;;;;23.88;14.63;;;;;;;;;;5037897;28;20216;-66
2022/03/24 12:10:13;;;;;;;28.13;15.77;;;;;;;;;;5043279;28;20284;-66
2022/03/24 12:12:59;;;;;;;27.90;16.10;;;;;;;;;;5035519;28;20701;-66
2022/03/24 12:15:24;;;;;;;26.70;16.67;;;;;;;;;;5044767;28;20623;-66
2022/03/24 12:18:07;;;;;;;27.73;16.77;;;;;;;;;;5042634;28;20212;-65
2022/03/24 12:20:46;;;;;;;29.67;17.30;;;;;;;;;;5031407;28;20194;-66
2022/03/24 12:23:12;;;;;;;28.05;17.23;;;;;;;;;;5036141;28;20207;-66
2022/03/24 12:25:38;;;;;;;26.23;14.93;;;;;;;;;;5045768;28;20205;-66
2022/03/24 12:28:11;;;;;;;25.70;16.58;;;;;;;;;;5036270;28;20182;-67
2022/03/24 12:30:45;;;;;;;21.55;15.13;;;;;;;;;;5037426;28;20561;-66
2022/03/24 12:33:12;;;;;;;27.17;15.85;;;;;;;;;;5025270;28;20244;-66
2022/03/24 12:35:55;;;;;;;25.05;15.57;;;;;;;;;;5032658;28;20185;-66
2022/03/24 12:38:26;;;;;;;24.33;15.55;;;;;;;;;;5016936;28;20190;-66
2022/03/24 12:41:04;;;;;;;26.80;16.25;;;;;;;;;;5038599;28;20174;-66
2022/03/24 12:43:49;;;;;;;27.55;15.10;;;;;;;;;;5021597;28;20292;-65
2022/03/24 12:46:21;;;;;;;27.05;15.02;;;;;;;;;;5025963;28;20263;-66
2022/03/24 12:48:46;;;;;;;23.20;15.27;;;;;;;;;;5024381;28;20676;-66
2022/03/24 12:51:16;;;;;;;24.23;14.93;;;;;;;;;;5019279;28;20174;-66
2022/03/24 12:53:57;;;;;;;24.30;14.80;;;;;;;;;;5021846;28;20191;-65
2022/03/24 12:56:26;;;;;;;23.83;14.73;;;;;;;;;;5026926;28;20178;-66
2022/03/24 12:58:54;;;;;;;23.77;14.07;;;;;;;;;;5022054;28;20532;-66
2022/03/24 13:01:20;;;;;;;26.50;14.95;;;;;;;;;;5020094;28;20293;-66
2022/03/24 13:03:54;;;;;;;23.75;14.18;;;;;;;;;;5017882;28;20266;-67
2022/03/24 13:06:20;;;;;;;26.50;14.38;;;;;;;;;;5022616;28;20210;-66
2022/03/24 13:09:14;;;;;;;22.50;14.07;;;;;;;;;;5028135;28;20182;-66
2022/03/24 13:11:54;;;;;;;26.55;16.42;;;;;;;;;;5030629;28;20527;-66
2022/03/24 13:14:21;;;;;;;26.50;15.40;;;;;;;;;;5031609;28;20319;-67
2022/03/24 13:17:08;;;;;;;33.95;16.70;;;;;;;;;;5037225;28;20229;-66
2022/03/24 13:19:35;;;;;;;26.65;15.93;;;;;;;;;;5014079;28;20645;-67
2022/03/24 13:22:11;;;;;;;26.80;15.82;;;;;;;;;;5017356;28;20240;-66
2022/03/24 13:24:37;;;;;;;20.75;12.90;;;;;;;;;;5034720;28;20537;-66
2022/03/24 13:27:04;;;;;;;23.92;14.25;;;;;;;;;;5033121;28;20197;-66
2022/03/24 13:29:37;;;;;;;29.90;14.50;;;;;;;;;;5039923;28;20189;-65
2022/03/24 13:32:29;;;;;;;24.88;15.00;;;;;;;;;;5037120;28;20205;-67
2022/03/24 13:35:00;;;;;;;24.60;15.02;;;;;;;;;;5042710;28;20438;-67
2022/03/24 13:37:31;;;;;;;23.10;14.23;;;;;;;;;;5032851;28;20177;-67
2022/03/24 13:39:57;;;;;;;24.25;15.30;;;;;;;;;;5042457;28;20276;-66
2022/03/24 13:42:25;;;;;;;23.60;15.10;;;;;;;;;;5029349;28;20492;-66
2022/03/24 13:44:52;;;;;;;28.13;14.95;;;;;;;;;;5043207;28;20727;-66
2022/03/24 13:47:26;;;;;;;23.95;15.55;;;;;;;;;;5025539;28;20232;-66
2022/03/24 13:49:54;;;;;;;22.58;14.73;;;;;;;;;;5036905;28;20674;-66
2022/03/24 13:52:33;;;;;;;22.35;13.35;;;;;;;;;;5041084;28;20416;-66
2022/03/24 13:55:04;;;;;;;24.88;14.88;;;;;;;;;;5038362;28;20664;-66
2022/03/24 13:57:29;;;;;;;21.95;14.32;;;;;;;;;;5041790;28;20181;-66
2022/03/24 13:59:55;;;;;;;24.55;15.00;;;;;;;;;;5035854;28;20188;-66
2022/03/24 14:02:25;;;;;;;22.15;13.75;;;;;;;;;;5034045;28;20178;-66
2022/03/24 14:05:09;;;;;;;21.38;13.55;;;;;;;;;;5035063;28;20292;-66
2022/03/24 14:07:59;;;;;;;23.08;14.43;;;;;;;;;;5026188;28;20211;-67
2022/03/24 14:10:48;;;;;;;22.85;14.57;;;;;;;;;;5031527;28;20235;-66
2022/03/24 14:13:19;;;;;;;23.73;14.25;;;;;;;;;;5037009;28;20603;-66
2022/03/24 14:15:44;;;;;;;20.63;13.45;;;;;;;;;;5035851;28;20705;-66
2022/03/24 14:18:22;;;;;;;20.92;13.52;;;;;;;;;;5038386;28;20277;-66
2022/03/24 14:20:51;;;;;;;23.05;14.32;;;;;;;;;;5033852;28;20242;-66